Time;durP1;ratioP1;P1;durP2;ratioP2;P2;SDS_P1;SDS_P2;PMS_P1;PMS_P2;Temp;Humidity;BMP_temperature;BMP_pressure;BME280_temperature;BME280_humidity;BME280_pressure;Samples;Min_cycle;Max_cycle;Signal;HPM_P1;HPM_P2
2022/03/05 00:01:50;;;;;;;;;;;;;;;4.60;59.44;100037.88;4440251;32;20004;-83
2022/03/05 00:04:15;;;;;;;;;;;;;;;4.48;59.43;100040.47;4453876;32;27199;-83
2022/03/05 00:06:41;;;;;;;;;;;;;;;4.75;59.45;100044.72;4453603;32;19980;-83
2022/03/05 00:09:06;;;;;;;;;;;;;;;4.83;59.45;100042.94;4444171;32;19987;-83
2022/03/05 00:11:31;;;;;;;;;;;;;;;4.88;59.46;100030.03;4444617;32;19989;-83
2022/03/05 00:13:56;;;;;;;;;;;;;;;4.59;59.44;100036.16;4452674;32;30392;-82
2022/03/05 00:16:21;;;;;;;;;;;;;;;4.49;59.44;100041.34;4453697;32;31876;-83
2022/03/05 00:18:48;;;;;;;;;;;;;;;4.43;59.43;100046.50;4439760;32;20437;-83
2022/03/05 00:21:13;;;;;;;;;;;;;;;4.42;59.43;100048.22;4454360;32;19991;-84
2022/03/05 00:23:38;;;;;;;;;;;;;;;4.45;59.43;100037.06;4454317;32;20013;-83
2022/03/05 00:26:04;;;;;;;;;;;;;;;4.39;59.42;100043.09;4453481;32;33571;-83
2022/03/05 00:28:30;;;;;;;;;;;;;;;4.56;59.43;100038.75;4440072;32;20060;-83
2022/03/05 00:31:00;;;;;;;;;;;;;;;4.47;59.43;100038.75;4439428;32;25414;-83
2022/03/05 00:33:25;;;;;;;;;;;;;;;4.48;59.43;100037.03;4440000;32;19996;-83
2022/03/05 00:35:50;;;;;;;;;;;;;;;4.45;59.43;100037.91;4439209;32;29751;-83
2022/03/05 00:38:16;;;;;;;;;;;;;;;4.49;59.44;100037.03;4453493;32;26110;-83
2022/03/05 00:40:42;;;;;;;;;;;;;;;4.46;59.43;100036.19;4454132;32;20026;-83
2022/03/05 00:43:07;;;;;;;;;;;;;;;4.41;59.42;100036.22;4440058;32;20073;-83
2022/03/05 00:45:32;;;;;;;;;;;;;;;4.43;59.43;100031.91;4447245;32;19993;-82
2022/03/05 00:47:57;;;;;;;;;;;;;;;4.33;59.42;100027.66;4449867;32;19969;-82
2022/03/05 00:50:23;;;;;;;;;;;;;;;4.52;59.43;100029.31;4439985;32;19986;-83
2022/03/05 00:52:48;;;;;;;;;;;;;;;4.51;59.43;100029.31;4439786;32;20282;-83
2022/03/05 00:55:13;;;;;;;;;;;;;;;4.40;59.42;100028.47;4453444;32;22565;-83
2022/03/05 00:57:38;;;;;;;;;;;;;;;4.45;59.43;100021.59;4453981;32;20065;-83
2022/03/05 01:00:04;;;;;;;;;;;;;;;4.48;59.43;100022.44;4439808;32;20106;-82
2022/03/05 01:02:31;;;;;;;;;;;;;;;4.46;59.43;100020.72;4454162;32;20029;-83
2022/03/05 01:04:56;;;;;;;;;;;;;;;4.47;59.43;100020.72;4454030;32;20447;-83
2022/03/05 01:07:21;;;;;;;;;;;;;;;4.36;59.42;100017.31;4439611;32;19992;-83
2022/03/05 01:09:46;;;;;;;;;;;;;;;4.40;59.42;100013.87;4432673;32;20385;-83
2022/03/05 01:12:11;;;;;;;;;;;;;;;4.37;59.43;100020.75;4434700;32;19993;-83
2022/03/05 01:14:37;;;;;;;;;;;;;;;4.41;59.42;100015.59;4453691;32;20068;-83
2022/03/05 01:17:02;;;;;;;;;;;;;;;4.32;59.42;100016.47;4454149;32;19969;-83
2022/03/05 01:19:27;;;;;;;;;;;;;;;4.35;59.43;100013.03;4454007;32;19989;-83
2022/03/05 01:21:52;;;;;;;;;;;;;;;4.53;59.43;100010.41;4439803;32;20078;-83
2022/03/05 01:24:18;;;;;;;;;;;;;;;4.30;59.42;100015.62;4439026;32;20262;-83
2022/03/05 01:26:43;;;;;;;;;;;;;;;4.25;59.41;100012.19;4426904;32;20281;-83
2022/03/05 01:29:08;;;;;;;;;;;;;;;4.28;59.42;100019.06;4453854;32;20054;-82
2022/03/05 01:31:33;;;;;;;;;;;;;;;4.36;59.43;100017.31;4453582;32;20372;-83
2022/03/05 01:33:59;;;;;;;;;;;;;;;4.34;59.42;100008.75;4453436;32;20270;-83
2022/03/05 01:36:24;;;;;;;;;;;;;;;4.12;59.40;100018.25;4453815;32;20246;-83
2022/03/05 01:38:49;;;;;;;;;;;;;;;4.22;59.42;100021.62;4453482;32;20030;-83
2022/03/05 01:41:14;;;;;;;;;;;;;;;4.19;59.41;100021.66;4453309;32;20042;-83
2022/03/05 01:43:40;;;;;;;;;;;;;;;4.24;59.41;100017.34;4411559;32;20024;-83
2022/03/05 01:46:05;;;;;;;;;;;;;;;4.14;59.41;100016.50;4449737;32;19997;-83
2022/03/05 01:48:30;;;;;;;;;;;;;;;4.28;59.42;100012.19;4452637;32;29403;-84
2022/03/05 01:50:55;;;;;;;;;;;;;;;4.32;59.42;100011.31;4426762;32;20329;-83
2022/03/05 01:53:20;;;;;;;;;;;;;;;4.31;59.42;100016.50;4439147;32;20360;-83
2022/03/05 01:55:46;;;;;;;;;;;;;;;4.27;59.42;100013.06;4453618;32;20506;-84
2022/03/05 01:58:11;;;;;;;;;;;;;;;4.12;59.40;100020.81;4439212;32;19989;-83
2022/03/05 02:00:36;;;;;;;;;;;;;;;4.18;59.41;100018.22;4439032;32;20001;-83
2022/03/05 02:03:01;;;;;;;;;;;;;;;4.10;59.41;100019.97;4453426;32;19997;-83
2022/03/05 02:05:27;;;;;;;;;;;;;;;4.06;59.41;100027.69;4439168;32;20035;-83
2022/03/05 02:07:53;;;;;;;;;;;;;;;4.00;59.40;100031.13;4439283;32;20420;-83
2022/03/05 02:10:18;;;;;;;;;;;;;;;3.92;59.40;100031.13;4425737;32;20028;-83
2022/03/05 02:12:44;;;;;;;;;;;;;;;3.80;59.38;100031.16;4431371;32;19997;-83
2022/03/05 02:15:09;;;;;;;;;;;;;;;3.87;59.39;100038.00;4418736;32;20091;-83
2022/03/05 02:17:35;;;;;;;;;;;;;;;3.71;59.39;100036.28;4408527;32;20085;-83
2022/03/05 02:20:00;;;;;;;;;;;;;;;3.68;59.39;100037.16;4421276;32;19994;-83
2022/03/05 02:22:25;;;;;;;;;;;;;;;3.62;59.38;100038.88;4420374;32;30505;-83
2022/03/05 02:24:51;;;;;;;;;;;;;;;3.57;59.38;100040.59;4422506;32;20005;-83
2022/03/05 02:27:16;;;;;;;;;;;;;;;3.55;59.38;100042.28;4422557;32;19994;-83
2022/03/05 02:29:41;;;;;;;;;;;;;;;3.65;59.38;100041.44;4422481;32;20029;-83
2022/03/05 02:32:06;;;;;;;;;;;;;;;3.52;59.37;100040.56;4421657;32;28698;-83
2022/03/05 02:34:32;;;;;;;;;;;;;;;3.55;59.38;100043.16;4422421;32;19982;-83
2022/03/05 02:36:57;;;;;;;;;;;;;;;3.46;59.38;100045.69;4421824;32;24102;-83
2022/03/05 02:39:25;;;;;;;;;;;;;;;3.59;59.38;100042.28;4421867;32;19962;-83
2022/03/05 02:41:53;;;;;;;;;;;;;;;3.44;59.36;100041.41;4422259;32;20039;-84
2022/03/05 02:44:18;;;;;;;;;;;;;;;3.60;59.38;100038.00;4421205;32;19986;-83
2022/03/05 02:46:43;;;;;;;;;;;;;;;3.38;59.36;100048.28;4420315;32;31542;-84
2022/03/05 02:49:08;;;;;;;;;;;;;;;3.50;59.37;100044.84;4421078;32;20024;-84
2022/03/05 02:51:34;;;;;;;;;;;;;;;3.59;59.38;100041.44;4422180;32;20005;-84
2022/03/05 02:53:59;;;;;;;;;;;;;;;3.57;59.37;100046.59;4421102;32;20065;-83
2022/03/05 02:56:24;;;;;;;;;;;;;;;3.57;59.37;100038.88;4422417;32;19988;-84
2022/03/05 02:58:49;;;;;;;;;;;;;;;3.58;59.38;100044.88;4424416;32;20314;-84
2022/03/05 03:01:15;;;;;;;;;;;;;;;3.48;59.37;100036.25;4424436;32;20000;-85
2022/03/05 03:03:40;;;;;;;;;;;;;;;3.29;59.36;100043.09;4423479;32;34345;-84
2022/03/05 03:06:08;;;;;;;;;;;;;;;3.27;59.36;100042.22;4409759;32;24447;-84
2022/03/05 03:08:33;;;;;;;;;;;;;;;3.49;59.37;100045.69;4424382;32;19974;-85
2022/03/05 03:10:59;;;;;;;;;;;;;;;3.42;59.37;100045.69;4422963;32;20403;-85
2022/03/05 03:13:24;;;;;;;;;;;;;;;3.47;59.38;100049.12;4423100;32;19985;-84
2022/03/05 03:15:49;;;;;;;;;;;;;;;3.56;59.38;100049.16;4423698;32;20543;-84
2022/03/05 03:18:18;;;;;;;;;;;;;;;3.50;59.37;100041.41;4425526;32;19993;-84
2022/03/05 03:20:43;;;;;;;;;;;;;;;3.42;59.37;100043.97;4424025;32;20047;-81
2022/03/05 03:23:08;;;;;;;;;;;;;;;3.52;59.37;100044.84;4425243;32;20029;-83
2022/03/05 03:25:33;;;;;;;;;;;;;;;3.42;59.37;100048.28;4424539;32;31413;-84
2022/03/05 03:27:59;;;;;;;;;;;;;;;3.49;59.37;100040.56;4424149;32;20022;-83
2022/03/05 03:30:24;;;;;;;;;;;;;;;3.52;59.37;100044.84;4425364;32;20284;-83
2022/03/05 03:32:49;;;;;;;;;;;;;;;3.50;59.37;100038.84;4424051;32;19981;-83
2022/03/05 03:35:15;;;;;;;;;;;;;;;3.50;59.37;100041.41;4411145;32;20373;-84
2022/03/05 03:37:40;;;;;;;;;;;;;;;3.54;59.38;100038.84;4411488;32;19970;-83
2022/03/05 03:40:06;;;;;;;;;;;;;;;3.34;59.36;100043.13;4411368;32;19990;-83
2022/03/05 03:42:31;;;;;;;;;;;;;;;3.56;59.37;100038.88;4425398;32;20263;-83
2022/03/05 03:44:57;;;;;;;;;;;;;;;3.60;59.37;100033.72;4425525;32;20033;-83
2022/03/05 03:47:22;;;;;;;;;;;;;;;3.86;59.40;100040.59;4425416;32;19982;-83
2022/03/05 03:49:47;;;;;;;;;;;;;;;3.59;59.38;100034.56;4425003;32;19982;-82
2022/03/05 03:52:15;;;;;;;;;;;;;;;3.60;59.38;100044.00;4424064;32;19990;-83
2022/03/05 03:54:41;;;;;;;;;;;;;;;3.68;59.39;100042.28;4424102;32;20004;-83
2022/03/05 03:57:06;;;;;;;;;;;;;;;3.58;59.38;100038.00;4425446;32;19969;-83
2022/03/05 03:59:31;;;;;;;;;;;;;;;3.73;59.38;100039.72;4424497;32;27670;-83
2022/03/05 04:01:57;;;;;;;;;;;;;;;3.59;59.37;100044.00;4423410;32;30592;-83
2022/03/05 04:04:22;;;;;;;;;;;;;;;3.57;59.38;100033.72;4425224;32;20025;-85
2022/03/05 04:09:31;;;;;;;;;;;;;;;3.55;59.37;100042.28;4425075;32;20040;-85
2022/03/05 04:11:56;;;;;;;;;;;;;;;3.57;59.38;100038.88;4423510;32;20038;-85
2022/03/05 04:14:22;;;;;;;;;;;;;;;3.55;59.37;100038.00;4410606;32;20015;-83
2022/03/05 04:16:47;;;;;;;;;;;;;;;3.63;59.38;100040.59;4424353;32;29908;-82
2022/03/05 04:19:12;;;;;;;;;;;;;;;3.63;59.38;100046.59;4424931;32;19989;-82
2022/03/05 04:21:37;;;;;;;;;;;;;;;3.75;59.38;100047.44;4424984;32;20326;-82
2022/03/05 04:24:03;;;;;;;;;;;;;;;3.56;59.37;100052.59;4424585;32;19977;-83
2022/03/05 04:26:28;;;;;;;;;;;;;;;3.50;59.37;100056.84;4424903;32;20006;-82
2022/03/05 04:28:53;;;;;;;;;;;;;;;3.49;59.37;100060.28;4424942;32;19994;-82
2022/03/05 04:31:18;;;;;;;;;;;;;;;3.55;59.38;100058.59;4423996;32;35908;-85
2022/03/05 04:33:44;;;;;;;;;;;;;;;3.34;59.36;100064.56;4424125;32;28190;-85
2022/03/05 04:36:09;;;;;;;;;;;;;;;3.22;59.35;100061.09;4423165;32;23929;-84
2022/03/05 04:38:34;;;;;;;;;;;;;;;3.19;59.35;100061.94;4423950;32;34426;-84
2022/03/05 04:40:59;;;;;;;;;;;;;;;3.23;59.35;100073.09;4424485;32;19974;-83
2022/03/05 04:43:25;;;;;;;;;;;;;;;3.32;59.37;100070.56;4424725;32;20024;-82
2022/03/05 04:45:50;;;;;;;;;;;;;;;3.23;59.35;100078.25;4410755;32;19974;-84
2022/03/05 04:48:15;;;;;;;;;;;;;;;3.23;59.35;100078.25;4422777;32;29011;-85
2022/03/05 04:50:40;;;;;;;;;;;;;;;3.27;59.36;100067.97;4424156;32;28690;-84
2022/03/05 04:53:06;;;;;;;;;;;;;;;3.33;59.36;100070.56;4424008;32;28356;-84
2022/03/05 04:55:32;;;;;;;;;;;;;;;3.37;59.36;100074.87;4424759;32;20016;-84
2022/03/05 04:57:57;;;;;;;;;;;;;;;3.48;59.37;100062.00;4422896;32;20054;-84
2022/03/05 05:00:23;;;;;;;;;;;;;;;3.43;59.37;100068.00;4424797;32;20339;-84
2022/03/05 05:02:48;;;;;;;;;;;;;;;3.56;59.37;100065.47;4423962;32;30260;-84
2022/03/05 05:05:13;;;;;;;;;;;;;;;3.55;59.38;100066.31;4422938;32;19989;-84
2022/03/05 05:07:39;;;;;;;;;;;;;;;3.46;59.38;100066.28;4424771;32;20018;-84
2022/03/05 05:10:04;;;;;;;;;;;;;;;3.45;59.36;100062.00;4424423;32;20012;-84
2022/03/05 05:12:30;;;;;;;;;;;;;;;3.39;59.37;100072.28;4424528;32;20043;-83
2022/03/05 05:14:55;;;;;;;;;;;;;;;3.38;59.36;100071.44;4423396;32;19974;-84
2022/03/05 05:17:20;;;;;;;;;;;;;;;3.45;59.36;100066.28;4422573;32;31911;-84
2022/03/05 05:19:45;;;;;;;;;;;;;;;3.48;59.37;100069.72;4422873;32;19992;-83
2022/03/05 05:22:11;;;;;;;;;;;;;;;3.47;59.38;100073.16;4410320;32;20010;-84
2022/03/05 05:24:37;;;;;;;;;;;;;;;3.58;59.38;100080.91;4424539;32;19965;-84
2022/03/05 05:27:03;;;;;;;;;;;;;;;3.54;59.38;100074.87;4423352;32;20084;-84
2022/03/05 05:29:28;;;;;;;;;;;;;;;3.62;59.38;100077.47;4410577;32;19994;-82
2022/03/05 05:31:55;;;;;;;;;;;;;;;3.46;59.38;100084.31;4424404;32;20017;-82
2022/03/05 05:34:20;;;;;;;;;;;;;;;3.60;59.38;100080.06;4424391;32;19966;-83
2022/03/05 05:36:45;;;;;;;;;;;;;;;3.60;59.38;100084.34;4423223;32;20008;-83
2022/03/05 05:39:10;;;;;;;;;;;;;;;3.74;59.38;100082.62;4423843;32;20020;-83
2022/03/05 05:41:36;;;;;;;;;;;;;;;3.98;59.41;100086.91;4423173;32;19977;-81
2022/03/05 05:44:05;;;;;;;;;;;;;;;3.67;59.38;100089.50;4423093;32;20329;-83
2022/03/05 05:46:30;;;;;;;;;;;;;;;3.60;59.37;100089.50;4423147;32;19990;-84
2022/03/05 05:48:55;;;;;;;;;;;;;;;3.55;59.38;100091.16;4422407;32;28450;-81
2022/03/05 05:51:21;;;;;;;;;;;;;;;3.80;59.39;100092.09;4423128;32;19981;-81
2022/03/05 05:53:46;;;;;;;;;;;;;;;3.77;59.39;100092.06;4424162;32;19961;-81
2022/03/05 05:56:11;;;;;;;;;;;;;;;3.87;59.39;100094.66;4423525;32;28932;-81
2022/03/05 05:58:36;;;;;;;;;;;;;;;3.62;59.38;100098.94;4423528;32;29483;-81
2022/03/05 06:01:01;;;;;;;;;;;;;;;3.73;59.39;100098.94;4410078;32;20020;-82
2022/03/05 06:03:27;;;;;;;;;;;;;;;3.87;59.39;100101.53;4424046;32;19986;-82
2022/03/05 06:05:52;;;;;;;;;;;;;;;3.80;59.38;100100.69;4424108;32;19994;-82
2022/03/05 06:08:18;;;;;;;;;;;;;;;3.93;59.40;100112.69;4422365;32;25044;-82
2022/03/05 06:10:43;;;;;;;;;;;;;;;3.96;59.40;100104.09;4409940;32;19985;-83
2022/03/05 06:13:08;;;;;;;;;;;;;;;4.11;59.41;100105.81;4422473;32;33912;-83
2022/03/05 06:15:33;;;;;;;;;;;;;;;4.01;59.40;100110.97;4423140;32;26313;-82
2022/03/05 06:17:58;;;;;;;;;;;;;;;4.18;59.41;100110.97;4423705;32;20010;-83
2022/03/05 06:20:24;;;;;;;;;;;;;;;4.17;59.41;100109.25;4423977;32;19974;-83
2022/03/05 06:22:49;;;;;;;;;;;;;;;4.15;59.41;100117.84;4422589;32;20361;-82
2022/03/05 06:25:17;;;;;;;;;;;;;;;4.31;59.41;100123.00;4422903;32;20001;-82
2022/03/05 06:27:42;;;;;;;;;;;;;;;4.30;59.42;100117.84;4423900;32;20404;-82
2022/03/05 06:30:08;;;;;;;;;;;;;;;4.34;59.41;100127.28;4423813;32;19978;-82
2022/03/05 06:32:33;;;;;;;;;;;;;;;4.54;59.43;100124.69;4425713;32;20019;-85
2022/03/05 06:34:58;;;;;;;;;;;;;;;4.37;59.42;100132.44;4424436;32;20013;-85
2022/03/05 06:37:24;;;;;;;;;;;;;;;4.50;59.42;100125.56;4425672;32;20311;-85
2022/03/05 06:39:49;;;;;;;;;;;;;;;4.41;59.42;100129.00;4423554;32;33201;-85
2022/03/05 06:42:15;;;;;;;;;;;;;;;4.33;59.42;100141.03;4424448;32;19970;-84
2022/03/05 06:44:40;;;;;;;;;;;;;;;4.42;59.43;100130.72;4424362;32;20024;-84
2022/03/05 06:47:05;;;;;;;;;;;;;;;4.61;59.43;100134.12;4424397;32;20292;-84
2022/03/05 06:49:30;;;;;;;;;;;;;;;4.58;59.43;100126.41;4424171;32;19990;-84
2022/03/05 06:51:56;;;;;;;;;;;;;;;4.66;59.44;100124.66;4424436;32;19970;-84
2022/03/05 06:54:21;;;;;;;;;;;;;;;4.79;59.45;100125.50;4411381;32;19993;-84
2022/03/05 06:56:46;;;;;;;;;;;;;;;4.85;59.45;100128.06;4411454;32;19989;-84
2022/03/05 06:59:11;;;;;;;;;;;;;;;4.89;59.45;100130.62;4425864;32;19985;-84
2022/03/05 07:01:37;;;;;;;;;;;;;;;4.89;59.45;100129.75;4417036;32;19974;-84
2022/03/05 07:04:02;;;;;;;;;;;;;;;4.82;59.45;100128.94;4440720;32;20021;-83
2022/03/05 07:06:27;;;;;;;;;;;;;;;4.90;59.45;100132.34;4440629;32;20074;-83
2022/03/05 07:08:53;;;;;;;;;;;;;;;5.16;59.46;100131.38;4454174;32;35204;-85
2022/03/05 07:11:18;;;;;;;;;;;;;;;5.30;59.47;100126.16;4428049;32;20021;-85
2022/03/05 07:13:43;;;;;;;;;;;;;;;5.42;59.48;100129.53;4454545;32;20036;-83
2022/03/05 07:16:08;;;;;;;;;;;;;;;5.52;59.49;100130.38;4427679;32;20037;-84
2022/03/05 07:18:34;;;;;;;;;;;;;;;5.57;59.49;100128.59;4440777;32;19992;-85
2022/03/05 07:20:59;;;;;;;;;;;;;;;5.65;59.50;100133.72;4440372;32;20428;-85
2022/03/05 07:23:24;;;;;;;;;;;;;;;5.69;59.50;100130.28;4454999;32;19977;-86
2022/03/05 07:25:50;;;;;;;;;;;;;;;5.81;59.50;100131.03;4427890;32;20031;-86
2022/03/05 07:28:15;;;;;;;;;;;;;;;5.84;59.51;100131.00;4440572;32;19997;-86
2022/03/05 07:30:42;;;;;;;;;;;;;;;5.73;59.50;100139.72;4454825;32;19988;-86
2022/03/05 07:33:07;;;;;;;;;;;;;;;5.83;59.51;100129.31;4440664;32;20053;-86
2022/03/05 07:35:32;;;;;;;;;;;;;;;5.87;59.50;100136.16;4454653;32;20018;-85
2022/03/05 07:37:58;;;;;;;;;;;;;;;6.18;59.52;100135.13;4454157;32;23943;-86
2022/03/05 07:40:23;;;;;;;;;;;;;;;6.43;59.54;100134.03;4427620;32;19985;-84
2022/03/05 07:42:48;;;;;;;;;;;;;;;6.39;59.54;100133.22;4454347;32;19989;-86
2022/03/05 07:45:13;;;;;;;;;;;;;;;6.52;59.55;100140.84;4440474;32;20332;-86
2022/03/05 07:47:39;;;;;;;;;;;;;;;6.44;59.54;100141.78;4439921;32;31000;-85
2022/03/05 07:50:04;;;;;;;;;;;;;;;6.33;59.53;100141.00;4440888;32;19989;-85
2022/03/05 07:52:29;;;;;;;;;;;;;;;6.43;59.54;100136.63;4440425;32;19985;-85
2022/03/05 07:54:55;;;;;;;;;;;;;;;6.47;59.54;100141.75;4440558;32;20015;-86
2022/03/05 07:57:20;;;;;;;;;;;;;;;6.39;59.54;100147.88;4453883;32;29510;-86
2022/03/05 07:59:45;;;;;;;;;;;;;;;6.64;59.56;100149.37;4426976;32;19974;-85
2022/03/05 08:02:10;;;;;;;;;;;;;;;6.76;59.56;100157.00;4454159;32;20042;-85
2022/03/05 08:04:36;;;;;;;;;;;;;;;6.72;59.56;100157.91;4454435;32;20021;-85
2022/03/05 08:07:01;;;;;;;;;;;;;;;6.65;59.56;100165.75;4454698;32;20023;-84
2022/03/05 08:09:26;;;;;;;;;;;;;;;6.99;59.57;100154.16;4454727;32;20516;-85
2022/03/05 08:11:51;;;;;;;;;;;;;;;6.68;59.56;100168.28;4438570;32;20052;-85
2022/03/05 08:14:17;;;;;;;;;;;;;;;6.70;59.55;100159.66;4440522;32;19997;-84
2022/03/05 08:16:42;;;;;;;;;;;;;;;6.91;59.57;100160.31;4453654;32;28132;-85
2022/03/05 08:19:07;;;;;;;;;;;;;;;6.97;59.57;100149.88;4454493;32;20030;-85
2022/03/05 08:21:33;;;;;;;;;;;;;;;7.15;59.57;100154.00;4454602;32;19973;-82
2022/03/05 08:23:58;;;;;;;;;;;;;;;7.20;59.58;100159.97;4454233;32;20007;-84
2022/03/05 08:26:23;;;;;;;;;;;;;;;7.18;59.59;100162.59;4439786;32;19977;-85
2022/03/05 08:28:48;;;;;;;;;;;;;;;7.02;59.58;100156.72;4427281;32;20013;-84
2022/03/05 08:31:14;;;;;;;;;;;;;;;7.15;59.57;100159.19;4426859;32;19973;-84
2022/03/05 08:33:39;;;;;;;;;;;;;;;7.49;59.60;100157.03;4440416;32;20027;-84
2022/03/05 08:36:05;;;;;;;;;;;;;;;7.49;59.60;100157.88;4440368;32;20287;-84
2022/03/05 08:38:34;;;;;;;;;;;;;;;7.62;59.61;100159.44;4439881;32;20025;-84
2022/03/05 08:41:00;;;;;;;;;;;;;;;7.52;59.59;100157.84;4440111;32;19997;-83
2022/03/05 08:43:25;;;;;;;;;;;;;;;7.47;59.60;100167.41;4454292;32;20011;-83
2022/03/05 08:45:50;;;;;;;;;;;;;;;7.49;59.60;100168.22;4439794;32;20451;-84
2022/03/05 08:48:16;;;;;;;;;;;;;;;7.45;59.60;100165.72;4454119;32;19989;-84
2022/03/05 08:50:41;;;;;;;;;;;;;;;7.25;59.59;100166.81;4427400;32;20013;-83
2022/03/05 08:53:06;;;;;;;;;;;;;;;7.33;59.59;100159.81;4453549;32;20000;-83
2022/03/05 08:55:31;;;;;;;;;;;;;;;7.29;59.59;100171.06;4453355;32;20009;-83
2022/03/05 08:57:57;;;;;;;;;;;;;;;7.23;59.58;100171.16;4438054;32;29095;-84
2022/03/05 09:00:22;;;;;;;;;;;;;;;7.25;59.59;100176.31;4438543;32;20345;-84
2022/03/05 09:02:47;;;;;;;;;;;;;;;7.39;59.58;100167.50;4428715;32;20020;-84
2022/03/05 09:05:14;;;;;;;;;;;;;;;7.39;59.60;100167.50;4396595;32;20043;-84
2022/03/05 09:07:39;;;;;;;;;;;;;;;7.37;59.59;100165.81;4423546;32;20042;-84
2022/03/05 09:10:05;;;;;;;;;;;;;;;7.47;59.60;100159.63;4422765;32;20006;-84
2022/03/05 09:12:30;;;;;;;;;;;;;;;7.49;59.60;100162.19;4423733;32;19978;-84
2022/03/05 09:14:56;;;;;;;;;;;;;;;7.54;59.60;100165.59;4422844;32;32223;-84
2022/03/05 09:17:22;;;;;;;;;;;;;;;7.77;59.62;100157.50;4409463;32;20000;-84
2022/03/05 09:19:47;;;;;;;;;;;;;;;7.87;59.62;100161.69;4397016;32;20342;-84
2022/03/05 09:22:12;;;;;;;;;;;;;;;7.89;59.62;100158.19;4408867;32;33105;-83
2022/03/05 09:24:37;;;;;;;;;;;;;;;7.99;59.63;100149.37;4396520;32;19989;-82
2022/03/05 09:27:03;;;;;;;;;;;;;;;8.12;59.63;100152.66;4408730;32;26007;-82
2022/03/05 09:29:29;;;;;;;;;;;;;;;8.38;59.65;100149.69;4409407;32;20279;-84
2022/03/05 09:31:55;;;;;;;;;;;;;;;8.36;59.64;100153.19;4430081;32;29729;-84
2022/03/05 09:34:20;;;;;;;;;;;;;;;8.28;59.64;100153.25;4423167;32;19986;-84
2022/03/05 09:36:45;;;;;;;;;;;;;;;8.09;59.63;100155.31;4437102;32;20020;-84
2022/03/05 09:39:11;;;;;;;;;;;;;;;8.32;59.65;100150.62;4436181;32;30277;-84
2022/03/05 09:41:39;;;;;;;;;;;;;;;8.54;59.66;100147.69;4437314;32;19997;-84
2022/03/05 09:44:04;;;;;;;;;;;;;;;8.68;59.67;100147.44;4424176;32;19973;-84
2022/03/05 09:46:30;;;;;;;;;;;;;;;9.05;59.69;100140.69;4424490;32;20019;-84
2022/03/05 09:48:55;;;;;;;;;;;;;;;8.96;59.68;100145.19;4436397;32;31903;-84
2022/03/05 09:51:21;;;;;;;;;;;;;;;9.00;59.68;100146.84;4423536;32;33533;-84
2022/03/05 09:53:46;;;;;;;;;;;;;;;8.91;59.68;100140.94;4436857;32;19973;-85
2022/03/05 09:56:11;;;;;;;;;;;;;;;8.98;59.69;100148.59;4424180;32;20260;-85
2022/03/05 09:58:36;;;;;;;;;;;;;;;8.91;59.69;100146.13;4438126;32;19981;-84
2022/03/05 10:01:02;;;;;;;;;;;;;;;8.82;59.68;100141.13;4437257;32;31298;-84
2022/03/05 10:03:27;;;;;;;;;;;;;;;8.68;59.67;100148.28;4438082;32;20001;-84
2022/03/05 10:05:52;;;;;;;;;;;;;;;8.66;59.68;100150.06;4435429;32;20004;-84
2022/03/05 10:08:20;;;;;;;;;;;;;;;8.78;59.68;100141.22;4423879;32;19985;-85
2022/03/05 10:10:49;;;;;;;;;;;;;;;9.02;59.69;100142.50;4424106;32;19997;-84
2022/03/05 10:13:18;;;;;;;;;;;;;;;8.96;59.69;100146.03;4437137;32;20376;-85
2022/03/05 10:15:43;;;;;;;;;;;;;;;8.96;59.68;100145.19;4438292;32;19981;-85
2022/03/05 10:18:08;;;;;;;;;;;;;;;8.85;59.68;100138.47;4436989;32;20050;-83
2022/03/05 10:20:34;;;;;;;;;;;;;;;8.80;59.67;100142.88;4423621;32;20246;-85
2022/03/05 10:23:03;;;;;;;;;;;;;;;8.82;59.68;100132.47;4436624;32;20016;-85
2022/03/05 10:25:39;;;;;;;;;;;;;;;8.86;59.67;100139.31;4436862;32;19973;-85
2022/03/05 10:28:07;;;;;;;;;;;;;;;9.13;59.69;100131.00;4436608;32;20016;-84
2022/03/05 10:30:33;;;;;;;;;;;;;;;9.26;59.70;100130.75;4437517;32;20001;-85
2022/03/05 10:32:58;;;;;;;;;;;;;;;9.34;59.71;100132.28;4423594;32;20282;-83
2022/03/05 10:35:23;;;;;;;;;;;;;;;9.27;59.71;100127.28;4423512;32;20003;-84
2022/03/05 10:37:52;;;;;;;;;;;;;;;9.23;59.70;100142.06;4437598;32;19993;-85
2022/03/05 10:40:33;;;;;;;;;;;;;;;9.34;59.71;100128.84;4437754;32;20004;-84
2022/03/05 10:43:00;;;;;;;;;;;;;;;9.77;59.72;100128.78;4436466;32;19978;-84
2022/03/05 10:45:25;;;;;;;;;;;;;;;9.94;59.73;100123.19;4436539;32;19970;-84
2022/03/05 10:47:51;;;;;;;;;;;;;;;9.87;59.73;100126.81;4423510;32;20004;-83
2022/03/05 10:50:19;;;;;;;;;;;;;;;10.02;59.75;100119.50;4422879;32;20009;-83
2022/03/05 10:52:48;;;;;;;;;;;;;;;10.02;59.75;100114.31;4420015;32;19978;-83
2022/03/05 10:55:17;;;;;;;;;;;;;;;9.83;59.73;100118.22;4435128;32;19995;-83
2022/03/05 10:57:55;;;;;;;;;;;;;;;9.66;59.72;100126.41;4434722;32;20007;-85
2022/03/05 11:00:20;;;;;;;;;;;;;;;9.57;59.71;100123.16;4436573;32;20273;-84
2022/03/05 11:02:46;;;;;;;;;;;;;;;9.72;59.73;100117.63;4435778;32;19974;-84
2022/03/05 11:05:11;;;;;;;;;;;;;;;9.87;59.74;100114.66;4434784;32;29670;-83
2022/03/05 11:07:36;;;;;;;;;;;;;;;9.82;59.73;100119.97;4422062;32;29331;-83
2022/03/05 11:10:02;;;;;;;;;;;;;;;9.75;59.73;100117.56;4422921;32;20004;-83
2022/03/05 11:12:27;;;;;;;;;;;;;;;9.64;59.71;100124.72;4435695;32;20047;-86
2022/03/05 11:14:52;;;;;;;;;;;;;;;9.97;59.74;100112.72;4435772;32;19962;-84
2022/03/05 11:17:17;;;;;;;;;;;;;;;9.80;59.74;100107.91;4424291;32;20032;-84
2022/03/05 11:19:43;;;;;;;;;;;;;;;10.15;59.75;100107.91;4439223;32;19978;-84
2022/03/05 11:22:08;;;;;;;;;;;;;;;10.02;59.75;100106.50;4425246;32;19977;-86
2022/03/05 11:24:33;;;;;;;;;;;;;;;10.29;59.76;100104.16;4438157;32;19973;-84
2022/03/05 11:26:58;;;;;;;;;;;;;;;10.34;59.76;100102.28;4438278;32;19989;-84
2022/03/05 11:29:27;;;;;;;;;;;;;;;10.28;59.75;100103.28;4438286;32;29762;-84
2022/03/05 11:31:52;;;;;;;;;;;;;;;10.27;59.76;100098.13;4437303;32;20035;-84
2022/03/05 11:34:18;;;;;;;;;;;;;;;10.35;59.77;100094.44;4438896;32;19962;-84
2022/03/05 11:36:44;;;;;;;;;;;;;;;10.22;59.76;100097.41;4438118;32;19993;-84
2022/03/05 11:39:09;;;;;;;;;;;;;;;10.22;59.75;100087.84;4437988;32;20030;-84
2022/03/05 11:41:46;;;;;;;;;;;;;;;10.38;59.76;100088.28;4425132;32;20330;-85
2022/03/05 11:44:12;;;;;;;;;;;;;;;10.66;59.78;100085.84;4425058;32;19970;-83
2022/03/05 11:46:37;;;;;;;;;;;;;;;10.51;59.78;100089.69;4438135;32;20342;-84
2022/03/05 11:49:06;;;;;;;;;;;;;;;10.53;59.77;100085.31;4437520;32;20306;-84
2022/03/05 11:51:31;;;;;;;;;;;;;;;10.47;59.78;100082.88;4437975;32;20039;-85
2022/03/05 11:54:04;;;;;;;;;;;;;;;10.31;59.76;100079.78;4425101;32;19999;-84
2022/03/05 11:56:30;;;;;;;;;;;;;;;10.20;59.76;100086.16;4438025;32;20048;-84
2022/03/05 11:58:55;;;;;;;;;;;;;;;10.10;59.75;100082.91;4425123;32;20005;-84
2022/03/05 12:01:33;;;;;;;;;;;;;;;9.95;59.74;100084.16;4439316;32;20594;-84
2022/03/05 12:04:03;;;;;;;;;;;;;;;9.87;59.74;100078.25;4437654;32;19966;-85
2022/03/05 12:06:29;;;;;;;;;;;;;;;9.89;59.73;100075.63;4439098;32;20039;-85
2022/03/05 12:08:54;;;;;;;;;;;;;;;10.07;59.75;100077.78;4424498;32;31196;-84
2022/03/05 12:11:20;;;;;;;;;;;;;;;10.07;59.75;100077.78;4437848;32;20013;-85
2022/03/05 12:13:45;;;;;;;;;;;;;;;10.39;59.76;100066.56;4439117;32;20319;-85
2022/03/05 12:16:17;;;;;;;;;;;;;;;10.40;59.77;100065.69;4438520;32;20035;-85
2022/03/05 12:18:42;;;;;;;;;;;;;;;10.48;59.77;100065.50;4438638;32;20330;-83
2022/03/05 12:21:07;;;;;;;;;;;;;;;10.37;59.77;100058.81;4436146;32;19992;-85
2022/03/05 12:23:33;;;;;;;;;;;;;;;10.17;59.76;100063.63;4438842;32;19968;-85
2022/03/05 12:25:58;;;;;;;;;;;;;;;10.22;59.75;100067.03;4423306;32;34906;-85
2022/03/05 12:28:24;;;;;;;;;;;;;;;10.05;59.75;100058.75;4424015;32;20016;-84
2022/03/05 12:30:51;;;;;;;;;;;;;;;9.88;59.74;100058.31;4437525;32;19986;-84
2022/03/05 12:33:16;;;;;;;;;;;;;;;9.90;59.74;100062.56;4424592;32;19977;-84
2022/03/05 12:35:43;;;;;;;;;;;;;;;10.01;59.75;100065.78;4437711;32;20004;-84
2022/03/05 12:38:08;;;;;;;;;;;;;;;9.69;59.72;100063.94;4438992;32;19999;-84
2022/03/05 12:40:33;;;;;;;;;;;;;;;9.65;59.73;100066.66;4424347;32;19986;-85